createdAt,value
2022-09-03T00:00:20.259Z,100624.69
2022-09-03T00:01:16.590Z,100620.66
2022-09-03T00:02:14.627Z,100632.47
2022-09-03T00:03:23.226Z,100624.44
2022-09-03T00:04:21.350Z,100625.50
2022-09-03T00:05:43.727Z,100630.56
2022-09-03T00:06:55.078Z,100622.25
2022-09-03T00:07:54.997Z,100630.56
2022-09-03T00:09:07.157Z,100630.56
2022-09-03T00:10:06.189Z,100617.41
2022-09-03T00:11:02.886Z,100624.09
2022-09-03T00:12:14.360Z,100616.88
2022-09-03T00:13:05.253Z,100622.22
2022-09-03T00:14:03.126Z,100622.47
2022-09-03T00:15:09.923Z,100621.41
2022-09-03T00:15:59.736Z,100617.94
2022-09-03T00:16:46.299Z,100630.75
2022-09-03T00:17:46.411Z,100614.16
2022-09-03T00:18:35.378Z,100614.41
2022-09-03T00:19:29.147Z,100628.06
2022-09-03T00:20:33.183Z,100622.44
2022-09-03T00:21:39.243Z,100620.59
2022-09-03T00:22:37.304Z,100624.31
2022-09-03T00:23:30.293Z,100625.38
2022-09-03T00:24:20.650Z,100621.91
2022-09-03T00:25:14.806Z,100624.31
2022-09-03T00:26:13.495Z,100622.97
2022-09-03T00:27:06.391Z,100618.69
2022-09-03T00:27:57.564Z,100621.66
2022-09-03T00:29:22.400Z,100630.69
2022-09-03T00:30:17.363Z,100616.53
2022-09-03T00:31:28.541Z,100619.47
2022-09-03T00:32:26.330Z,100628.59
2022-09-03T00:33:27.880Z,100620.81
2022-09-03T00:34:29.565Z,100626.69
2022-09-03T00:35:25.143Z,100621.88
2022-09-03T00:36:42.460Z,100628.53
2022-09-03T00:37:29.579Z,100619.72
2022-09-03T00:38:22.267Z,100630.16
2022-09-03T00:39:11.079Z,100625.34
2022-09-03T00:39:57.612Z,100624.28
2022-09-03T00:41:17.408Z,100615.13
2022-09-03T00:42:15.539Z,100623.72
2022-09-03T00:43:32.586Z,100615.72
2022-09-03T00:44:35.081Z,100625.59
2022-09-03T00:45:46.241Z,100619.44
2022-09-03T00:46:45.681Z,100617.00
2022-09-03T00:47:54.083Z,100623.19
2022-09-03T00:49:06.040Z,100621.06
2022-09-03T00:50:22.868Z,100625.34
2022-09-03T00:51:31.929Z,100619.72
2022-09-03T00:52:33.651Z,100612.78
2022-09-03T00:53:41.986Z,100625.84
2022-09-03T00:54:53.519Z,100621.34
2022-09-03T00:55:58.680Z,100619.44
2022-09-03T00:57:05.346Z,100619.47
2022-09-03T00:58:16.725Z,100616.78
2022-09-03T00:59:15.120Z,100622.63
2022-09-03T01:00:09.328Z,100620.00
2022-09-03T01:00:56.528Z,100623.69
2022-09-03T01:02:01.373Z,100619.38
2022-09-03T01:03:12.240Z,100614.03
2022-09-03T01:04:13.706Z,100615.94
2022-09-03T01:05:31.540Z,100613.50
2022-09-03T01:06:29.158Z,100618.31
2022-09-03T01:07:33.506Z,100615.09
2022-09-03T01:08:39.148Z,100607.09
2022-09-03T01:09:42.071Z,100608.16
2022-09-03T01:10:46.907Z,100611.91
2022-09-03T01:11:59.406Z,100608.69
2022-09-03T01:13:08.746Z,100617.19
2022-09-03T01:14:31.026Z,100623.88
2022-09-03T01:15:30.000Z,100614.50
2022-09-03T01:16:22.187Z,100614.47
2022-09-03T01:17:16.906Z,100615.00
2022-09-03T01:18:21.242Z,100616.06
2022-09-03T01:19:56.584Z,100619.00
2022-09-03T01:20:49.774Z,100612.63
2022-09-03T01:22:05.234Z,100610.59
2022-09-03T01:23:31.228Z,100615.09
2022-09-03T01:24:43.554Z,100617.25
2022-09-03T01:26:08.305Z,100614.53
2022-09-03T01:27:28.247Z,100614.53
2022-09-03T01:28:39.764Z,100625.78
2022-09-03T01:29:47.466Z,100620.66
2022-09-03T01:30:40.186Z,100617.19
2022-09-03T01:31:35.300Z,100623.06
2022-09-03T01:32:42.994Z,100612.63
2022-09-03T01:33:43.278Z,100612.84
2022-09-03T01:34:57.303Z,100617.66
2022-09-03T01:35:55.458Z,100620.03
2022-09-03T01:37:03.936Z,100612.03
2022-09-03T01:38:15.188Z,100619.75
2022-09-03T01:39:06.395Z,100612.78
2022-09-03T01:40:07.714Z,100620.25
2022-09-03T01:41:34.741Z,100620.25
2022-09-03T01:42:41.590Z,100612.47
2022-09-03T01:44:13.778Z,100620.22
2022-09-03T01:45:12.999Z,100622.06
2022-09-03T01:46:18.819Z,100621.00
2022-09-03T01:47:18.786Z,100615.91
2022-09-03T01:48:35.994Z,100620.94
2022-09-03T01:49:47.971Z,100619.88
2022-09-03T01:50:46.042Z,100623.28
2022-09-03T01:51:33.088Z,100614.75
2022-09-03T01:52:39.306Z,100614.47
2022-09-03T01:54:01.455Z,100619.00
2022-09-03T01:55:25.219Z,100618.19
2022-09-03T01:56:29.556Z,100622.69
2022-09-03T01:57:43.543Z,100621.06
2022-09-03T01:58:43.390Z,100618.09
2022-09-03T01:59:33.025Z,100619.44
2022-09-03T02:00:20.491Z,100616.22
2022-09-03T02:01:20.903Z,100610.09
2022-09-03T02:02:28.834Z,100612.47
2022-09-03T02:03:18.119Z,100610.84
2022-09-03T02:04:18.599Z,100612.19
2022-09-03T02:05:09.106Z,100601.78
2022-09-03T02:05:55.602Z,100618.34
2022-09-03T02:06:42.428Z,100616.47
2022-09-03T02:07:35.956Z,100610.03
2022-09-03T02:08:22.464Z,100611.88
2022-09-03T02:09:09.144Z,100617.72
2022-09-03T02:09:55.616Z,100610.78
2022-09-03T02:10:47.501Z,100610.78
2022-09-03T02:11:34.135Z,100615.06
2022-09-03T02:12:21.726Z,100609.16
2022-09-03T02:13:15.915Z,100616.38
2022-09-03T02:14:04.768Z,100612.34
2022-09-03T02:14:51.457Z,100612.84
2022-09-03T02:15:43.431Z,100605.38
2022-09-03T02:16:35.083Z,100604.59
2022-09-03T02:17:22.601Z,100604.88
2022-09-03T02:18:19.121Z,100607.81
2022-09-03T02:19:10.817Z,100607.25
2022-09-03T02:20:01.638Z,100613.91
2022-09-03T02:20:51.693Z,100611.00
2022-09-03T02:21:43.384Z,100612.31
2022-09-03T02:22:29.898Z,100606.41
2022-09-03T02:23:16.883Z,100600.06
2022-09-03T02:24:05.130Z,100606.97
2022-09-03T02:24:52.974Z,100610.69
2022-09-03T02:25:45.158Z,100598.97
2022-09-03T02:26:32.089Z,100612.31
2022-09-03T02:27:19.753Z,100608.28
2022-09-03T02:28:16.909Z,100617.09
2022-09-03T02:29:04.549Z,100614.41
2022-09-03T02:29:51.518Z,100608.53
2022-09-03T02:30:38.057Z,100609.56
2022-09-03T02:31:25.294Z,100608.22
2022-09-03T02:32:15.053Z,100603.97
2022-09-03T02:33:02.117Z,100606.06
2022-09-03T02:33:50.896Z,100605.78
2022-09-03T02:34:37.354Z,100611.41
2022-09-03T02:35:23.849Z,100603.66
2022-09-03T02:36:15.199Z,100605.78
2022-09-03T02:37:16.081Z,100602.53
2022-09-03T02:38:25.712Z,100604.41
2022-09-03T02:39:13.353Z,100608.88
2022-09-03T02:39:59.921Z,100606.44
2022-09-03T02:40:46.931Z,100608.06
2022-09-03T02:41:34.374Z,100602.44
2022-09-03T02:42:20.885Z,100604.28
2022-09-03T02:43:17.384Z,100616.97
2022-09-03T02:44:25.929Z,100608.41
2022-09-03T02:45:29.002Z,100607.25
2022-09-03T02:46:27.084Z,100600.88
2022-09-03T02:47:15.044Z,100609.94
2022-09-03T02:48:01.834Z,100609.94
2022-09-03T02:48:49.043Z,100604.59
2022-09-03T02:49:36.092Z,100602.28
2022-09-03T02:50:23.811Z,100605.13
2022-09-03T02:51:13.743Z,100601.13
2022-09-03T02:52:12.308Z,100599.28
2022-09-03T02:52:59.295Z,100609.19
2022-09-03T02:53:46.109Z,100601.19
2022-09-03T02:54:35.871Z,100609.75
2022-09-03T02:55:22.463Z,100604.69
2022-09-03T02:56:09.043Z,100602.53
2022-09-03T02:56:55.505Z,100605.47
2022-09-03T02:57:42.298Z,100610.28
2022-09-03T02:58:31.446Z,100596.94
2022-09-03T02:59:18.150Z,100612.41
2022-09-03T03:00:05.513Z,100609.19
2022-09-03T03:00:55.349Z,100603.63
2022-09-03T03:01:42.033Z,100601.50
2022-09-03T03:02:28.600Z,100604.97
2022-09-03T03:03:15.204Z,100612.16
2022-09-03T03:04:02.229Z,100602.81
2022-09-03T03:04:49.379Z,100603.38
2022-09-03T03:05:47.190Z,100609.50
2022-09-03T03:06:33.751Z,100601.75
2022-09-03T03:07:20.511Z,100602.53
2022-09-03T03:08:08.913Z,100600.13
2022-09-03T03:08:56.084Z,100604.13
2022-09-03T03:09:42.614Z,100597.41
2022-09-03T03:10:29.070Z,100602.16
2022-09-03T03:11:19.978Z,100597.41
2022-09-03T03:12:07.341Z,100602.44
2022-09-03T03:12:54.117Z,100596.31
2022-09-03T03:13:40.690Z,100603.00
2022-09-03T03:14:27.246Z,100604.34
2022-09-03T03:15:13.723Z,100600.31
2022-09-03T03:16:02.880Z,100595.84
2022-09-03T03:16:50.355Z,100599.59
2022-09-03T03:17:36.829Z,100597.13
2022-09-03T03:18:24.192Z,100595.28
2022-09-03T03:19:10.823Z,100589.13
2022-09-03T03:19:57.561Z,100590.78
2022-09-03T03:20:44.629Z,100595.44
2022-09-03T03:21:31.332Z,100595.16
2022-09-03T03:22:18.061Z,100586.63
2022-09-03T03:23:05.868Z,100594.38
2022-09-03T03:23:52.394Z,100590.09
2022-09-03T03:24:38.884Z,100592.75
2022-09-03T03:25:25.514Z,100585.53
2022-09-03T03:26:15.489Z,100583.97
2022-09-03T03:27:06.324Z,100591.94
2022-09-03T03:27:56.931Z,100582.88
2022-09-03T03:28:43.398Z,100584.75
2022-09-03T03:29:30.118Z,100591.94
2022-09-03T03:30:16.657Z,100576.44
2022-09-03T03:31:11.505Z,100587.66
2022-09-03T03:31:58.113Z,100580.22
2022-09-03T03:32:45.102Z,100581.81
2022-09-03T03:33:31.542Z,100581.03
2022-09-03T03:34:18.050Z,100584.22
2022-09-03T03:35:06.641Z,100585.66
2022-09-03T03:35:53.089Z,100583.47
2022-09-03T03:36:39.650Z,100582.13
2022-09-03T03:37:26.237Z,100579.72
2022-09-03T03:38:12.712Z,100581.81
2022-09-03T03:39:00.619Z,100587.66
2022-09-03T03:39:47.137Z,100587.66
2022-09-03T03:40:34.672Z,100587.09
2022-09-03T03:41:24.434Z,100579.41
2022-09-03T03:42:11.418Z,100583.97
2022-09-03T03:42:58.987Z,100585.81
2022-09-03T03:43:46.152Z,100588.97
2022-09-03T03:44:32.622Z,100584.44
2022-09-03T03:45:19.735Z,100582.63
2022-09-03T03:46:06.333Z,100581.81
2022-09-03T03:46:53.422Z,100577.31
2022-09-03T03:47:39.863Z,100586.69
2022-09-03T03:48:26.433Z,100583.47
2022-09-03T03:49:13.058Z,100588.25
2022-09-03T03:50:00.216Z,100593.03
2022-09-03T03:50:47.367Z,100585.84
2022-09-03T03:51:35.111Z,100588.25
2022-09-03T03:52:21.569Z,100579.72
2022-09-03T03:53:08.181Z,100581.81
2022-09-03T03:53:57.066Z,100581.03
2022-09-03T03:54:43.544Z,100582.09
2022-09-03T03:55:35.152Z,100581.31
2022-09-03T03:56:22.107Z,100573.06
2022-09-03T03:57:08.591Z,100572.53
2022-09-03T03:57:55.521Z,100576.78
2022-09-03T03:58:44.082Z,100579.44
2022-09-03T03:59:30.570Z,100577.56
2022-09-03T04:00:17.347Z,100580.25
2022-09-03T04:01:10.335Z,100578.66
2022-09-03T04:01:56.847Z,100577.09
2022-09-03T04:02:43.462Z,100575.22
2022-09-03T04:03:30.041Z,100576.03
2022-09-03T04:04:17.680Z,100574.69
2022-09-03T04:05:04.857Z,100580.50
2022-09-03T04:05:59.752Z,100583.47
2022-09-03T04:06:46.270Z,100581.84
2022-09-03T04:07:32.739Z,100570.44
2022-09-03T04:08:20.581Z,100567.22
2022-09-03T04:09:07.067Z,100571.78
2022-09-03T04:09:53.550Z,100574.97
2022-09-03T04:10:40.091Z,100573.38
2022-09-03T04:11:26.850Z,100574.41
2022-09-03T04:12:13.319Z,100573.06
2022-09-03T04:13:01.175Z,100571.19
2022-09-03T04:13:49.453Z,100576.78
2022-09-03T04:14:38.407Z,100568.53
2022-09-03T04:15:25.104Z,100573.88
2022-09-03T04:16:18.437Z,100562.66
2022-09-03T04:17:05.319Z,100584.03
2022-09-03T04:17:55.165Z,100566.19
2022-09-03T04:18:42.302Z,100572.09
2022-09-03T04:19:30.118Z,100574.19
2022-09-03T04:20:16.623Z,100573.44
2022-09-03T04:21:08.855Z,100571.56
2022-09-03T04:21:55.627Z,100577.47
2022-09-03T04:22:42.078Z,100577.16
2022-09-03T04:23:28.542Z,100577.69
2022-09-03T04:24:15.044Z,100571.78
2022-09-03T04:25:01.520Z,100571.19
2022-09-03T04:25:52.949Z,100569.09
2022-09-03T04:26:40.787Z,100572.06
2022-09-03T04:27:27.341Z,100573.91
2022-09-03T04:28:14.973Z,100570.19
2022-09-03T04:29:10.093Z,100572.53
2022-09-03T04:29:56.998Z,100577.44
2022-09-03T04:30:43.484Z,100579.53
2022-09-03T04:31:35.933Z,100584.88
2022-09-03T04:32:40.993Z,100576.38
2022-09-03T04:33:27.451Z,100568.41
2022-09-03T04:34:14.284Z,100567.84
2022-09-03T04:35:01.836Z,100572.44
2022-09-03T04:35:48.508Z,100579.38
2022-09-03T04:36:35.114Z,100568.19
2022-09-03T04:37:21.818Z,100575.03
2022-09-03T04:38:08.258Z,100577.13
2022-09-03T04:38:59.383Z,100576.31
2022-09-03T04:39:46.108Z,100573.09
2022-09-03T04:40:32.873Z,100581.66
2022-09-03T04:41:25.829Z,100575.19
2022-09-03T04:42:12.350Z,100582.44
2022-09-03T04:42:59.723Z,100577.91
2022-09-03T04:43:51.270Z,100578.97
2022-09-03T04:44:38.431Z,100582.13
2022-09-03T04:45:25.298Z,100581.59
2022-09-03T04:46:16.137Z,100584.31
2022-09-03T04:47:07.424Z,100578.16
2022-09-03T04:48:04.653Z,100585.38
2022-09-03T04:48:53.747Z,100574.69
2022-09-03T04:49:40.185Z,100583.50
2022-09-03T04:50:27.979Z,100585.66
2022-09-03T04:51:24.969Z,100585.38
2022-09-03T04:52:11.907Z,100578.91
2022-09-03T04:53:07.570Z,100576.50
2022-09-03T04:54:00.273Z,100580.22
2022-09-03T04:54:46.912Z,100583.47
2022-09-03T04:55:38.206Z,100575.44
2022-09-03T04:56:30.801Z,100583.72
2022-09-03T04:57:17.362Z,100578.38
2022-09-03T04:58:05.284Z,100581.06
2022-09-03T04:58:58.690Z,100587.72
2022-09-03T04:59:45.263Z,100578.66
2022-09-03T05:00:33.126Z,100580.75
2022-09-03T05:01:22.437Z,100586.88
2022-09-03T05:02:10.083Z,100585.88
2022-09-03T05:03:00.916Z,100583.75
2022-09-03T05:03:48.192Z,100582.13
2022-09-03T05:04:34.625Z,100581.06
2022-09-03T05:05:21.403Z,100583.47
2022-09-03T05:06:08.239Z,100574.91
2022-09-03T05:06:54.984Z,100584.81
2022-09-03T05:07:41.522Z,100582.09
2022-09-03T05:08:28.174Z,100588.00
2022-09-03T05:09:14.647Z,100582.09
2022-09-03T05:10:01.807Z,100581.56
2022-09-03T05:10:49.151Z,100577.81
2022-09-03T05:11:41.529Z,100586.88
2022-09-03T05:12:28.041Z,100589.31
2022-09-03T05:13:14.530Z,100583.75
2022-09-03T05:14:02.346Z,100580.22
2022-09-03T05:14:48.855Z,100586.13
2022-09-03T05:15:35.411Z,100587.19
2022-09-03T05:16:23.882Z,100584.25
2022-09-03T05:17:10.613Z,100580.78
2022-09-03T05:17:59.239Z,100574.69
2022-09-03T05:18:47.716Z,100587.31
2022-09-03T05:19:34.365Z,100575.25
2022-09-03T05:20:21.508Z,100590.03
2022-09-03T05:21:12.944Z,100587.63
2022-09-03T05:21:59.445Z,100590.06
2022-09-03T05:22:45.934Z,100585.81
2022-09-03T05:23:37.765Z,100589.28
2022-09-03T05:24:25.099Z,100589.31
2022-09-03T05:25:11.610Z,100580.78
2022-09-03T05:26:00.756Z,100593.63
2022-09-03T05:26:48.875Z,100584.03
2022-09-03T05:27:35.487Z,100575.50
2022-09-03T05:28:21.996Z,100590.47
2022-09-03T05:29:09.551Z,100583.00
2022-09-03T05:29:56.063Z,100585.72
2022-09-03T05:30:42.517Z,100588.38
2022-09-03T05:31:31.625Z,100576.91
2022-09-03T05:32:18.478Z,100586.78
2022-09-03T05:33:06.062Z,100580.09
2022-09-03T05:34:00.415Z,100589.47
2022-09-03T05:34:47.169Z,100578.00
2022-09-03T05:35:33.960Z,100590.81
2022-09-03T05:36:25.545Z,100588.41
2022-09-03T05:37:12.632Z,100590.28
2022-09-03T05:38:00.797Z,100584.22
2022-09-03T05:38:47.856Z,100587.94
2022-09-03T05:39:34.348Z,100585.56
2022-09-03T05:40:20.869Z,100590.09
2022-09-03T05:41:10.149Z,100585.31
2022-09-03T05:41:56.704Z,100585.59
2022-09-03T05:42:43.652Z,100580.53
2022-09-03T05:43:31.527Z,100590.44
2022-09-03T05:44:18.220Z,100592.31
2022-09-03T05:45:10.863Z,100584.28
2022-09-03T05:46:05.675Z,100587.78
2022-09-03T05:46:53.197Z,100591.25
2022-09-03T05:47:41.316Z,100592.31
2022-09-03T05:48:29.654Z,100592.06
2022-09-03T05:49:16.152Z,100597.41
2022-09-03T05:50:02.864Z,100588.06
2022-09-03T05:50:49.626Z,100585.41
2022-09-03T05:51:39.520Z,100594.22
2022-09-03T05:52:26.025Z,100587.78
2022-09-03T05:53:12.457Z,100591.81
2022-09-03T05:53:59.198Z,100588.34
2022-09-03T05:54:46.948Z,100595.00
2022-09-03T05:55:34.018Z,100595.25
2022-09-03T05:56:23.544Z,100593.66
2022-09-03T05:57:10.082Z,100588.31
2022-09-03T05:57:56.714Z,100592.06
2022-09-03T05:58:46.885Z,100594.75
2022-09-03T05:59:33.328Z,100593.13
2022-09-03T06:00:20.557Z,100594.47
2022-09-03T06:01:22.653Z,100592.59
2022-09-03T06:02:09.243Z,100595.00
2022-09-03T06:03:00.023Z,100593.91
2022-09-03T06:03:53.538Z,100595.25
2022-09-03T06:04:40.223Z,100590.19
2022-09-03T06:05:26.709Z,100598.19
2022-09-03T06:06:14.099Z,100591.25
2022-09-03T06:07:00.747Z,100596.09
2022-09-03T06:07:49.481Z,100596.38
2022-09-03T06:08:38.598Z,100589.13
2022-09-03T06:09:25.122Z,100593.69
2022-09-03T06:10:12.610Z,100601.44
2022-09-03T06:11:00.630Z,100604.13
2022-09-03T06:11:50.119Z,100601.47
2022-09-03T06:12:37.124Z,100602.28
2022-09-03T06:13:23.720Z,100595.59
2022-09-03T06:14:12.774Z,100600.41
2022-09-03T06:14:59.626Z,100603.06
2022-09-03T06:15:46.084Z,100602.00
2022-09-03T06:16:35.665Z,100602.84
2022-09-03T06:17:22.211Z,100604.69
2022-09-03T06:18:08.971Z,100607.63
2022-09-03T06:18:56.404Z,100607.91
2022-09-03T06:19:42.890Z,100602.00
2022-09-03T06:20:30.028Z,100601.22
2022-09-03T06:21:17.737Z,100607.91
2022-09-03T06:22:04.251Z,100600.41
2022-09-03T06:22:52.956Z,100598.28
2022-09-03T06:23:40.979Z,100605.50
2022-09-03T06:24:36.890Z,100595.31
2022-09-03T06:25:23.623Z,100602.81
2022-09-03T06:26:14.417Z,100603.34
2022-09-03T06:27:01.419Z,100603.84
2022-09-03T06:27:49.354Z,100607.84
2022-09-03T06:28:39.009Z,100603.53
2022-09-03T06:29:25.928Z,100597.91
2022-09-03T06:30:13.618Z,100607.78
2022-09-03T06:31:02.199Z,100603.72
2022-09-03T06:31:48.919Z,100609.88
2022-09-03T06:32:44.041Z,100614.66
2022-09-03T06:33:33.195Z,100610.34
2022-09-03T06:34:22.465Z,100606.59
2022-09-03T06:35:09.165Z,100606.84
2022-09-03T06:35:58.645Z,100619.41
2022-09-03T06:36:46.212Z,100608.91
2022-09-03T06:37:32.673Z,100606.50
2022-09-03T06:38:19.687Z,100605.91
2022-09-03T06:39:06.177Z,100606.13
2022-09-03T06:39:54.421Z,100603.91
2022-09-03T06:40:40.960Z,100613.28
2022-09-03T06:41:33.698Z,100611.91
2022-09-03T06:42:20.972Z,100609.22
2022-09-03T06:43:08.517Z,100611.34
2022-09-03T06:44:04.880Z,100617.25
2022-09-03T06:44:51.892Z,100611.78
2022-09-03T06:45:38.402Z,100609.84
2022-09-03T06:46:25.201Z,100614.13
2022-09-03T06:47:12.863Z,100606.91
2022-09-03T06:47:59.375Z,100613.53
2022-09-03T06:48:47.100Z,100609.72
2022-09-03T06:49:33.559Z,100610.53
2022-09-03T06:50:20.407Z,100612.91
2022-09-03T06:51:09.902Z,100616.06
2022-09-03T06:51:56.368Z,100609.63
2022-09-03T06:52:42.886Z,100602.81
2022-09-03T06:53:41.100Z,100612.72
2022-09-03T06:54:27.576Z,100616.72
2022-09-03T06:55:14.338Z,100606.22
2022-09-03T06:56:03.461Z,100611.00
2022-09-03T06:56:49.914Z,100608.16
2022-09-03T06:57:36.362Z,100611.66
2022-09-03T06:58:23.185Z,100605.75
2022-09-03T06:59:15.014Z,100607.06
2022-09-03T07:00:03.788Z,100606.56
2022-09-03T07:00:53.891Z,100600.91
2022-09-03T07:01:44.570Z,100600.06
2022-09-03T07:02:31.244Z,100610.69
2022-09-03T07:03:17.771Z,100606.91
2022-09-03T07:04:05.457Z,100611.13
2022-09-03T07:04:51.945Z,100606.25
2022-09-03T07:05:40.797Z,100615.38
2022-09-03T07:06:32.478Z,100608.63
2022-09-03T07:07:21.614Z,100611.25
2022-09-03T07:08:10.405Z,100609.78
2022-09-03T07:08:57.935Z,100603.78
2022-09-03T07:09:48.240Z,100606.97
2022-09-03T07:10:37.588Z,100604.22
2022-09-03T07:11:30.669Z,100608.44
2022-09-03T07:12:19.185Z,100606.84
2022-09-03T07:13:08.723Z,100611.66
2022-09-03T07:13:56.554Z,100620.25
2022-09-03T07:14:43.094Z,100613.59
2022-09-03T07:15:29.590Z,100613.84
2022-09-03T07:16:20.080Z,100613.13
2022-09-03T07:17:06.661Z,100607.66
2022-09-03T07:17:53.300Z,100614.44
2022-09-03T07:18:40.798Z,100614.44
2022-09-03T07:19:27.351Z,100612.81
2022-09-03T07:20:17.007Z,100617.50
2022-09-03T07:21:08.331Z,100620.19
2022-09-03T07:21:55.002Z,100618.66
2022-09-03T07:22:41.618Z,100621.03
2022-09-03T07:23:29.909Z,100616.44
2022-09-03T07:24:18.038Z,100621.09
2022-09-03T07:25:05.013Z,100621.97
2022-09-03T07:25:56.256Z,100619.81
2022-09-03T07:26:52.157Z,100624.88
2022-09-03T07:27:38.887Z,100628.66
2022-09-03T07:28:27.318Z,100619.50
2022-09-03T07:29:16.041Z,100618.94
2022-09-03T07:30:03.788Z,100624.53
2022-09-03T07:31:00.495Z,100620.53
2022-09-03T07:31:47.745Z,100619.44
2022-09-03T07:32:34.338Z,100619.09
2022-09-03T07:33:21.125Z,100618.00
2022-09-03T07:34:10.525Z,100620.69
2022-09-03T07:34:58.049Z,100615.78
2022-09-03T07:35:48.575Z,100616.38
2022-09-03T07:36:45.626Z,100614.78
2022-09-03T07:37:32.812Z,100612.16
2022-09-03T07:38:19.815Z,100614.88
2022-09-03T07:39:06.440Z,100617.19
2022-09-03T07:39:53.036Z,100613.78
2022-09-03T07:40:39.825Z,100619.88
2022-09-03T07:41:28.701Z,100614.56
2022-09-03T07:42:15.704Z,100615.72
2022-09-03T07:43:04.626Z,100626.78
2022-09-03T07:43:51.130Z,100620.31
2022-09-03T07:44:37.572Z,100621.63
2022-09-03T07:45:25.417Z,100619.72
2022-09-03T07:46:15.390Z,100620.59
2022-09-03T07:47:02.804Z,100623.56
2022-09-03T07:47:52.225Z,100626.00
2022-09-03T07:48:42.163Z,100625.25
2022-09-03T07:49:28.688Z,100620.81
2022-09-03T07:50:16.147Z,100623.06
2022-09-03T07:51:02.725Z,100626.47
2022-09-03T07:51:52.454Z,100621.41
2022-09-03T07:52:38.949Z,100628.38
2022-09-03T07:53:25.416Z,100616.53
2022-09-03T07:54:12.003Z,100618.13
2022-09-03T07:54:59.320Z,100627.78
2022-09-03T07:55:46.359Z,100628.31
2022-09-03T07:56:35.272Z,100619.63
2022-09-03T07:57:21.743Z,100628.72
2022-09-03T07:58:08.172Z,100624.06
2022-09-03T07:58:57.428Z,100625.88
2022-09-03T07:59:43.927Z,100631.59
2022-09-03T08:00:33.119Z,100628.31
2022-09-03T08:01:22.354Z,100631.31
2022-09-03T08:02:08.816Z,100634.38
2022-09-03T08:02:56.546Z,100633.28
2022-09-03T08:03:45.655Z,100638.44
2022-09-03T08:04:33.641Z,100636.75
2022-09-03T08:05:21.295Z,100629.97
2022-09-03T08:06:08.936Z,100638.88
2022-09-03T08:06:56.765Z,100634.56
2022-09-03T08:07:43.247Z,100633.41
2022-09-03T08:08:33.687Z,100634.81
2022-09-03T08:09:22.172Z,100640.00
2022-09-03T08:10:09.238Z,100639.81
2022-09-03T08:11:09.923Z,100640.75
2022-09-03T08:11:56.696Z,100630.06
2022-09-03T08:12:43.220Z,100642.41
2022-09-03T08:13:29.795Z,100638.13
2022-09-03T08:14:17.778Z,100643.84
2022-09-03T08:15:05.137Z,100638.03
2022-09-03T08:15:56.684Z,100645.03
2022-09-03T08:16:49.012Z,100637.50
2022-09-03T08:17:35.570Z,100647.13
2022-09-03T08:18:23.281Z,100649.91
2022-09-03T08:19:11.174Z,100639.19
2022-09-03T08:19:58.563Z,100641.59
2022-09-03T08:20:45.281Z,100642.69
2022-09-03T08:21:31.942Z,100642.06
2022-09-03T08:22:18.585Z,100660.97
2022-09-03T08:23:05.266Z,100642.97
2022-09-03T08:23:54.730Z,100645.28
2022-09-03T08:24:42.517Z,100648.75
2022-09-03T08:25:29.585Z,100650.50
2022-09-03T08:26:20.093Z,100656.00
2022-09-03T08:27:06.603Z,100657.59
2022-09-03T08:27:53.129Z,100652.34
2022-09-03T08:28:40.629Z,100654.72
2022-09-03T08:29:27.728Z,100654.84
2022-09-03T08:30:14.454Z,100651.94
2022-09-03T08:31:16.242Z,100657.25
2022-09-03T08:32:05.373Z,100655.97
2022-09-03T08:32:52.033Z,100642.81
2022-09-03T08:33:43.015Z,100660.97
2022-09-03T08:34:29.516Z,100664.56
2022-09-03T08:35:16.126Z,100665.16
2022-09-03T08:36:25.246Z,100658.91
2022-09-03T08:37:12.571Z,100662.38
2022-09-03T08:38:05.225Z,100659.38
2022-09-03T08:38:55.181Z,100665.59
2022-09-03T08:39:41.855Z,100660.66
2022-09-03T08:40:29.103Z,100659.50
2022-09-03T08:41:35.016Z,100667.28
2022-09-03T08:42:38.621Z,100669.59
2022-09-03T08:43:29.207Z,100667.38
2022-09-03T08:44:42.009Z,100665.63
2022-09-03T08:45:30.299Z,100664.13
2022-09-03T08:46:17.087Z,100664.13
2022-09-03T08:47:13.787Z,100663.91
2022-09-03T08:48:16.251Z,100660.91
2022-09-03T08:49:02.876Z,100665.97
2022-09-03T08:50:02.860Z,100675.00
2022-09-03T08:50:59.088Z,100672.41
2022-09-03T08:51:49.465Z,100672.41
2022-09-03T08:52:49.183Z,100665.69
2022-09-03T08:53:41.421Z,100671.91
2022-09-03T08:54:31.770Z,100672.59
2022-09-03T08:55:43.210Z,100661.13
2022-09-03T08:56:32.962Z,100669.09
2022-09-03T08:57:21.033Z,100661.91
2022-09-03T08:58:18.509Z,100664.91
2022-09-03T08:59:05.300Z,100670.59
2022-09-03T08:59:56.579Z,100665.69
2022-09-03T09:01:02.324Z,100660.91
2022-09-03T09:01:58.764Z,100664.91
2022-09-03T09:03:01.342Z,100670.59
2022-09-03T09:03:54.101Z,100677.91
2022-09-03T09:05:11.143Z,100667.19
2022-09-03T09:06:30.033Z,100673.88
2022-09-03T09:07:32.936Z,100676.06
2022-09-03T09:08:28.698Z,100675.56
2022-09-03T09:09:33.750Z,100674.78
2022-09-03T09:10:35.937Z,100673.03
2022-09-03T09:11:46.752Z,100674.72
2022-09-03T09:12:56.537Z,100682.38
2022-09-03T09:13:52.026Z,100678.59
2022-09-03T09:14:50.822Z,100677.78
2022-09-03T09:16:05.108Z,100677.88
2022-09-03T09:17:33.181Z,100677.72
2022-09-03T09:18:39.528Z,100684.25
2022-09-03T09:19:42.342Z,100677.53
2022-09-03T09:21:07.377Z,100676.25
2022-09-03T09:22:01.645Z,100680.16
2022-09-03T09:22:56.022Z,100676.34
2022-09-03T09:23:51.036Z,100681.03
2022-09-03T09:24:46.815Z,100677.72
2022-09-03T09:25:42.466Z,100683.28
2022-09-03T09:26:29.894Z,100677.72
2022-09-03T09:27:17.262Z,100676.94
2022-09-03T09:28:17.588Z,100677.22
2022-09-03T09:29:12.309Z,100681.59
2022-09-03T09:30:01.822Z,100679.50
2022-09-03T09:30:54.181Z,100674.66
2022-09-03T09:31:45.083Z,100669.38
2022-09-03T09:32:34.841Z,100671.69
2022-09-03T09:33:21.730Z,100671.63
2022-09-03T09:34:08.837Z,100668.25
2022-09-03T09:34:55.301Z,100671.53
2022-09-03T09:35:44.728Z,100667.97
2022-09-03T09:36:31.216Z,100665.97
2022-09-03T09:37:18.913Z,100677.16
2022-09-03T09:38:05.375Z,100666.59
2022-09-03T09:38:53.384Z,100671.38
2022-09-03T09:39:53.334Z,100667.00
2022-09-03T09:40:45.206Z,100671.81
2022-09-03T09:41:32.023Z,100672.41
2022-09-03T09:42:21.846Z,100670.81
2022-09-03T09:43:12.591Z,100668.59
2022-09-03T09:44:05.198Z,100669.56
2022-09-03T09:44:52.101Z,100666.19
2022-09-03T09:45:44.158Z,100671.59
2022-09-03T09:46:42.136Z,100667.59
2022-09-03T09:47:35.709Z,100669.78
2022-09-03T09:48:34.503Z,100664.38
2022-09-03T09:49:55.629Z,100670.00
2022-09-03T09:50:42.244Z,100675.84
2022-09-03T09:51:31.230Z,100676.22
2022-09-03T09:52:18.393Z,100672.06
2022-09-03T09:53:14.484Z,100671.56
2022-09-03T09:54:04.556Z,100667.59